sensor_id;sensor_type;location;lat;lon;timestamp;P1;durP1;ratioP1;P2;durP2;ratioP2
19280;SDS011;9774;52.034;5.342;2023-08-20T00:01:24;4.78;;;2.47;;
19280;SDS011;9774;52.034;5.342;2023-08-20T00:03:53;3.58;;;2.25;;
19280;SDS011;9774;52.034;5.342;2023-08-20T00:06:22;3.67;;;2.50;;
19280;SDS011;9774;52.034;5.342;2023-08-20T00:08:50;4.30;;;2.25;;
19280;SDS011;9774;52.034;5.342;2023-08-20T00:11:17;9.90;;;2.72;;
19280;SDS011;9774;52.034;5.342;2023-08-20T00:13:45;4.97;;;2.33;;
19280;SDS011;9774;52.034;5.342;2023-08-20T00:16:13;3.95;;;2.30;;
19280;SDS011;9774;52.034;5.342;2023-08-20T00:18:41;3.00;;;2.15;;
19280;SDS011;9774;52.034;5.342;2023-08-20T00:21:09;7.13;;;2.63;;
19280;SDS011;9774;52.034;5.342;2023-08-20T00:23:37;4.65;;;2.22;;
19280;SDS011;9774;52.034;5.342;2023-08-20T00:26:05;3.25;;;2.65;;
19280;SDS011;9774;52.034;5.342;2023-08-20T00:28:32;2.63;;;2.15;;
19280;SDS011;9774;52.034;5.342;2023-08-20T00:30:59;5.25;;;2.70;;
19280;SDS011;9774;52.034;5.342;2023-08-20T00:33:29;2.95;;;2.20;;
19280;SDS011;9774;52.034;5.342;2023-08-20T00:35:56;4.68;;;2.55;;
19280;SDS011;9774;52.034;5.342;2023-08-20T00:38:22;2.85;;;2.17;;
19280;SDS011;9774;52.034;5.342;2023-08-20T00:40:49;5.68;;;2.58;;
19280;SDS011;9774;52.034;5.342;2023-08-20T00:43:16;2.85;;;2.17;;
19280;SDS011;9774;52.034;5.342;2023-08-20T00:45:44;4.13;;;2.13;;
19280;SDS011;9774;52.034;5.342;2023-08-20T00:48:11;5.90;;;2.13;;
19280;SDS011;9774;52.034;5.342;2023-08-20T00:50:41;3.08;;;2.30;;
19280;SDS011;9774;52.034;5.342;2023-08-20T00:53:08;3.05;;;1.88;;
19280;SDS011;9774;52.034;5.342;2023-08-20T00:55:37;2.88;;;1.90;;
19280;SDS011;9774;52.034;5.342;2023-08-20T00:58:04;3.05;;;2.58;;
19280;SDS011;9774;52.034;5.342;2023-08-20T01:00:32;3.35;;;2.28;;
19280;SDS011;9774;52.034;5.342;2023-08-20T01:02:59;4.15;;;2.35;;
19280;SDS011;9774;52.034;5.342;2023-08-20T01:05:26;4.90;;;2.58;;
19280;SDS011;9774;52.034;5.342;2023-08-20T01:08:04;2.50;;;2.10;;
19280;SDS011;9774;52.034;5.342;2023-08-20T01:10:48;2.85;;;2.25;;
19280;SDS011;9774;52.034;5.342;2023-08-20T01:13:23;3.17;;;2.33;;
19280;SDS011;9774;52.034;5.342;2023-08-20T01:15:50;3.80;;;2.15;;
19280;SDS011;9774;52.034;5.342;2023-08-20T01:18:18;2.67;;;2.03;;
19280;SDS011;9774;52.034;5.342;2023-08-20T01:20:47;3.13;;;2.17;;
19280;SDS011;9774;52.034;5.342;2023-08-20T01:23:32;4.30;;;2.65;;
19280;SDS011;9774;52.034;5.342;2023-08-20T01:26:42;2.70;;;2.10;;
19280;SDS011;9774;52.034;5.342;2023-08-20T01:29:32;3.30;;;2.50;;
19280;SDS011;9774;52.034;5.342;2023-08-20T01:32:00;3.65;;;2.40;;
19280;SDS011;9774;52.034;5.342;2023-08-20T01:34:28;5.00;;;2.45;;
19280;SDS011;9774;52.034;5.342;2023-08-20T01:36:55;5.03;;;2.35;;
19280;SDS011;9774;52.034;5.342;2023-08-20T01:39:22;3.13;;;2.40;;
19280;SDS011;9774;52.034;5.342;2023-08-20T01:41:49;3.25;;;2.45;;
19280;SDS011;9774;52.034;5.342;2023-08-20T01:44:16;3.65;;;2.47;;
19280;SDS011;9774;52.034;5.342;2023-08-20T01:46:45;4.32;;;2.33;;
19280;SDS011;9774;52.034;5.342;2023-08-20T01:49:12;5.07;;;2.45;;
19280;SDS011;9774;52.034;5.342;2023-08-20T01:51:39;7.03;;;2.35;;
19280;SDS011;9774;52.034;5.342;2023-08-20T01:54:06;4.80;;;2.30;;
19280;SDS011;9774;52.034;5.342;2023-08-20T01:56:33;2.78;;;2.17;;
19280;SDS011;9774;52.034;5.342;2023-08-20T01:59:00;3.20;;;2.30;;
19280;SDS011;9774;52.034;5.342;2023-08-20T02:01:27;3.00;;;2.42;;
19280;SDS011;9774;52.034;5.342;2023-08-20T02:03:56;4.18;;;2.67;;
19280;SDS011;9774;52.034;5.342;2023-08-20T02:06:23;3.60;;;2.22;;
19280;SDS011;9774;52.034;5.342;2023-08-20T02:08:51;3.33;;;2.15;;
19280;SDS011;9774;52.034;5.342;2023-08-20T02:11:17;3.78;;;2.30;;
19280;SDS011;9774;52.034;5.342;2023-08-20T02:13:44;3.03;;;1.95;;
19280;SDS011;9774;52.034;5.342;2023-08-20T02:16:11;2.15;;;1.63;;
19280;SDS011;9774;52.034;5.342;2023-08-20T02:18:38;3.30;;;2.63;;
19280;SDS011;9774;52.034;5.342;2023-08-20T02:21:07;4.03;;;2.38;;
19280;SDS011;9774;52.034;5.342;2023-08-20T02:23:34;3.85;;;1.90;;
19280;SDS011;9774;52.034;5.342;2023-08-20T02:26:02;2.78;;;2.10;;
19280;SDS011;9774;52.034;5.342;2023-08-20T02:28:29;4.07;;;2.50;;
19280;SDS011;9774;52.034;5.342;2023-08-20T02:30:56;2.45;;;2.20;;
19280;SDS011;9774;52.034;5.342;2023-08-20T02:33:25;2.95;;;2.15;;
19280;SDS011;9774;52.034;5.342;2023-08-20T02:35:52;3.45;;;2.45;;
19280;SDS011;9774;52.034;5.342;2023-08-20T02:38:20;3.10;;;2.40;;
19280;SDS011;9774;52.034;5.342;2023-08-20T02:40:47;6.13;;;2.88;;
19280;SDS011;9774;52.034;5.342;2023-08-20T02:43:14;4.32;;;2.55;;
19280;SDS011;9774;52.034;5.342;2023-08-20T02:45:42;4.40;;;2.58;;
19280;SDS011;9774;52.034;5.342;2023-08-20T02:48:09;4.45;;;2.47;;
19280;SDS011;9774;52.034;5.342;2023-08-20T02:50:37;4.82;;;3.20;;
19280;SDS011;9774;52.034;5.342;2023-08-20T02:53:04;3.20;;;2.25;;
19280;SDS011;9774;52.034;5.342;2023-08-20T02:55:32;3.55;;;2.63;;
19280;SDS011;9774;52.034;5.342;2023-08-20T02:58:00;3.85;;;2.60;;
19280;SDS011;9774;52.034;5.342;2023-08-20T03:00:30;3.83;;;2.40;;
19280;SDS011;9774;52.034;5.342;2023-08-20T03:02:58;4.13;;;2.45;;
19280;SDS011;9774;52.034;5.342;2023-08-20T03:05:25;4.30;;;2.97;;
19280;SDS011;9774;52.034;5.342;2023-08-20T03:07:52;4.93;;;2.72;;
19280;SDS011;9774;52.034;5.342;2023-08-20T03:10:19;6.95;;;3.00;;
19280;SDS011;9774;52.034;5.342;2023-08-20T03:12:48;6.13;;;2.40;;
19280;SDS011;9774;52.034;5.342;2023-08-20T03:15:15;4.22;;;2.50;;
19280;SDS011;9774;52.034;5.342;2023-08-20T03:17:42;3.35;;;2.45;;
19280;SDS011;9774;52.034;5.342;2023-08-20T03:20:09;4.63;;;2.42;;
19280;SDS011;9774;52.034;5.342;2023-08-20T03:22:37;3.78;;;2.50;;
19280;SDS011;9774;52.034;5.342;2023-08-20T03:25:05;5.32;;;2.55;;
19280;SDS011;9774;52.034;5.342;2023-08-20T03:27:33;6.13;;;2.70;;
19280;SDS011;9774;52.034;5.342;2023-08-20T03:30:01;4.18;;;2.40;;
19280;SDS011;9774;52.034;5.342;2023-08-20T03:32:29;4.95;;;2.45;;
19280;SDS011;9774;52.034;5.342;2023-08-20T03:34:56;5.80;;;2.75;;
19280;SDS011;9774;52.034;5.342;2023-08-20T03:37:24;4.35;;;2.83;;
19280;SDS011;9774;52.034;5.342;2023-08-20T03:39:51;3.45;;;2.38;;
19280;SDS011;9774;52.034;5.342;2023-08-20T03:42:18;4.85;;;2.95;;
19280;SDS011;9774;52.034;5.342;2023-08-20T03:44:45;2.72;;;2.20;;
19280;SDS011;9774;52.034;5.342;2023-08-20T03:47:14;4.47;;;2.40;;
19280;SDS011;9774;52.034;5.342;2023-08-20T03:49:45;9.15;;;3.33;;
19280;SDS011;9774;52.034;5.342;2023-08-20T03:52:12;3.13;;;2.67;;
19280;SDS011;9774;52.034;5.342;2023-08-20T03:54:39;3.88;;;2.28;;
19280;SDS011;9774;52.034;5.342;2023-08-20T03:57:09;5.47;;;2.50;;
19280;SDS011;9774;52.034;5.342;2023-08-20T03:59:36;4.60;;;2.10;;
19280;SDS011;9774;52.034;5.342;2023-08-20T04:02:03;2.83;;;2.60;;
19280;SDS011;9774;52.034;5.342;2023-08-20T04:04:31;3.42;;;2.40;;
19280;SDS011;9774;52.034;5.342;2023-08-20T04:06:58;4.63;;;3.00;;
19280;SDS011;9774;52.034;5.342;2023-08-20T04:09:25;4.32;;;2.50;;
19280;SDS011;9774;52.034;5.342;2023-08-20T04:11:52;3.15;;;2.10;;
19280;SDS011;9774;52.034;5.342;2023-08-20T04:14:19;5.15;;;2.30;;
19280;SDS011;9774;52.034;5.342;2023-08-20T04:16:46;3.53;;;2.78;;
19280;SDS011;9774;52.034;5.342;2023-08-20T04:19:13;4.35;;;2.33;;
19280;SDS011;9774;52.034;5.342;2023-08-20T04:21:41;3.10;;;2.28;;
19280;SDS011;9774;52.034;5.342;2023-08-20T04:24:08;2.67;;;1.88;;
19280;SDS011;9774;52.034;5.342;2023-08-20T04:26:35;2.83;;;1.98;;
19280;SDS011;9774;52.034;5.342;2023-08-20T04:29:02;4.15;;;2.00;;
19280;SDS011;9774;52.034;5.342;2023-08-20T04:31:30;5.15;;;2.05;;
19280;SDS011;9774;52.034;5.342;2023-08-20T04:33:57;3.58;;;1.80;;
19280;SDS011;9774;52.034;5.342;2023-08-20T04:36:25;3.72;;;2.45;;
19280;SDS011;9774;52.034;5.342;2023-08-20T04:38:53;2.78;;;1.92;;
19280;SDS011;9774;52.034;5.342;2023-08-20T04:41:21;5.90;;;2.53;;
19280;SDS011;9774;52.034;5.342;2023-08-20T04:43:47;3.30;;;1.80;;
19280;SDS011;9774;52.034;5.342;2023-08-20T04:46:14;7.13;;;2.35;;
19280;SDS011;9774;52.034;5.342;2023-08-20T04:48:41;4.05;;;2.33;;
19280;SDS011;9774;52.034;5.342;2023-08-20T04:51:09;3.15;;;2.30;;
19280;SDS011;9774;52.034;5.342;2023-08-20T04:53:36;5.60;;;2.22;;
19280;SDS011;9774;52.034;5.342;2023-08-20T04:56:05;3.47;;;2.03;;
19280;SDS011;9774;52.034;5.342;2023-08-20T04:58:32;4.32;;;1.83;;
19280;SDS011;9774;52.034;5.342;2023-08-20T05:00:59;2.80;;;2.00;;
19280;SDS011;9774;52.034;5.342;2023-08-20T05:03:26;5.18;;;1.95;;
19280;SDS011;9774;52.034;5.342;2023-08-20T05:05:53;1.80;;;1.67;;
19280;SDS011;9774;52.034;5.342;2023-08-20T05:08:20;2.42;;;2.22;;
19280;SDS011;9774;52.034;5.342;2023-08-20T05:10:47;3.17;;;2.22;;
19280;SDS011;9774;52.034;5.342;2023-08-20T05:13:17;5.43;;;2.20;;
19280;SDS011;9774;52.034;5.342;2023-08-20T05:15:45;4.00;;;2.17;;
19280;SDS011;9774;52.034;5.342;2023-08-20T05:18:12;2.92;;;2.15;;
19280;SDS011;9774;52.034;5.342;2023-08-20T05:20:40;3.50;;;1.98;;
19280;SDS011;9774;52.034;5.342;2023-08-20T05:23:07;2.75;;;1.75;;
19280;SDS011;9774;52.034;5.342;2023-08-20T05:25:34;4.97;;;1.80;;
19280;SDS011;9774;52.034;5.342;2023-08-20T05:28:01;5.00;;;2.30;;
19280;SDS011;9774;52.034;5.342;2023-08-20T05:30:29;2.42;;;1.90;;
19280;SDS011;9774;52.034;5.342;2023-08-20T05:32:56;2.70;;;1.90;;
19280;SDS011;9774;52.034;5.342;2023-08-20T05:35:23;3.30;;;2.15;;
19280;SDS011;9774;52.034;5.342;2023-08-20T05:37:50;2.05;;;1.63;;
19280;SDS011;9774;52.034;5.342;2023-08-20T05:40:18;4.65;;;2.10;;
19280;SDS011;9774;52.034;5.342;2023-08-20T05:42:45;2.17;;;1.77;;
19280;SDS011;9774;52.034;5.342;2023-08-20T05:45:12;2.17;;;1.90;;
19280;SDS011;9774;52.034;5.342;2023-08-20T05:47:41;3.00;;;2.20;;
19280;SDS011;9774;52.034;5.342;2023-08-20T05:50:08;3.85;;;2.08;;
19280;SDS011;9774;52.034;5.342;2023-08-20T05:52:35;4.18;;;2.30;;
19280;SDS011;9774;52.034;5.342;2023-08-20T05:55:02;2.80;;;1.83;;
19280;SDS011;9774;52.034;5.342;2023-08-20T05:57:30;3.38;;;2.08;;
19280;SDS011;9774;52.034;5.342;2023-08-20T05:59:57;2.97;;;2.08;;
19280;SDS011;9774;52.034;5.342;2023-08-20T06:02:24;3.05;;;1.88;;
19280;SDS011;9774;52.034;5.342;2023-08-20T06:04:52;2.75;;;2.08;;
19280;SDS011;9774;52.034;5.342;2023-08-20T06:07:22;5.15;;;2.20;;
19280;SDS011;9774;52.034;5.342;2023-08-20T06:09:49;4.30;;;2.40;;
19280;SDS011;9774;52.034;5.342;2023-08-20T06:12:16;3.45;;;1.90;;
19280;SDS011;9774;52.034;5.342;2023-08-20T06:14:43;3.28;;;2.25;;
19280;SDS011;9774;52.034;5.342;2023-08-20T06:17:10;4.07;;;1.77;;
19280;SDS011;9774;52.034;5.342;2023-08-20T06:19:38;4.75;;;1.98;;
19280;SDS011;9774;52.034;5.342;2023-08-20T06:22:07;2.25;;;2.00;;
19280;SDS011;9774;52.034;5.342;2023-08-20T06:24:34;4.47;;;2.10;;
19280;SDS011;9774;52.034;5.342;2023-08-20T06:27:01;4.35;;;2.13;;
19280;SDS011;9774;52.034;5.342;2023-08-20T06:29:28;3.28;;;2.00;;
19280;SDS011;9774;52.034;5.342;2023-08-20T06:31:55;5.68;;;2.28;;
19280;SDS011;9774;52.034;5.342;2023-08-20T06:34:25;3.00;;;2.08;;
19280;SDS011;9774;52.034;5.342;2023-08-20T06:36:52;4.18;;;2.28;;
19280;SDS011;9774;52.034;5.342;2023-08-20T06:39:21;5.80;;;2.00;;
19280;SDS011;9774;52.034;5.342;2023-08-20T06:41:48;2.40;;;1.73;;
19280;SDS011;9774;52.034;5.342;2023-08-20T06:44:15;3.33;;;1.92;;
19280;SDS011;9774;52.034;5.342;2023-08-20T06:46:42;1.98;;;1.52;;
19280;SDS011;9774;52.034;5.342;2023-08-20T06:49:09;3.80;;;1.63;;
19280;SDS011;9774;52.034;5.342;2023-08-20T06:51:37;4.20;;;2.08;;
19280;SDS011;9774;52.034;5.342;2023-08-20T06:54:05;3.03;;;1.58;;
19280;SDS011;9774;52.034;5.342;2023-08-20T06:56:34;7.05;;;2.72;;
19280;SDS011;9774;52.034;5.342;2023-08-20T06:59:01;4.68;;;1.75;;
19280;SDS011;9774;52.034;5.342;2023-08-20T07:01:28;3.97;;;1.25;;
19280;SDS011;9774;52.034;5.342;2023-08-20T07:03:56;2.35;;;1.55;;
19280;SDS011;9774;52.034;5.342;2023-08-20T07:06:23;8.80;;;2.08;;
19280;SDS011;9774;52.034;5.342;2023-08-20T07:08:50;7.65;;;1.63;;
19280;SDS011;9774;52.034;5.342;2023-08-20T07:11:17;3.17;;;1.30;;
19280;SDS011;9774;52.034;5.342;2023-08-20T07:13:48;3.50;;;1.40;;
19280;SDS011;9774;52.034;5.342;2023-08-20T07:16:15;6.28;;;1.75;;
19280;SDS011;9774;52.034;5.342;2023-08-20T07:18:42;3.72;;;1.58;;
19280;SDS011;9774;52.034;5.342;2023-08-20T07:21:09;2.83;;;1.27;;
19280;SDS011;9774;52.034;5.342;2023-08-20T07:23:36;1.77;;;1.38;;
19280;SDS011;9774;52.034;5.342;2023-08-20T07:26:04;2.38;;;1.10;;
19280;SDS011;9774;52.034;5.342;2023-08-20T07:28:34;4.35;;;1.58;;
19280;SDS011;9774;52.034;5.342;2023-08-20T07:31:17;4.13;;;1.27;;
19280;SDS011;9774;52.034;5.342;2023-08-20T07:33:45;4.60;;;1.50;;
19280;SDS011;9774;52.034;5.342;2023-08-20T07:36:13;1.02;;;0.77;;
19280;SDS011;9774;52.034;5.342;2023-08-20T07:38:40;4.85;;;1.30;;
19280;SDS011;9774;52.034;5.342;2023-08-20T07:41:07;4.35;;;1.48;;
19280;SDS011;9774;52.034;5.342;2023-08-20T07:43:36;4.55;;;1.23;;
19280;SDS011;9774;52.034;5.342;2023-08-20T07:46:04;2.42;;;1.17;;
19280;SDS011;9774;52.034;5.342;2023-08-20T07:48:33;4.72;;;1.65;;
19280;SDS011;9774;52.034;5.342;2023-08-20T07:51:00;4.63;;;1.27;;
19280;SDS011;9774;52.034;5.342;2023-08-20T07:53:28;3.00;;;1.40;;
19280;SDS011;9774;52.034;5.342;2023-08-20T07:55:55;4.10;;;1.10;;
19280;SDS011;9774;52.034;5.342;2023-08-20T07:58:23;2.50;;;1.23;;
19280;SDS011;9774;52.034;5.342;2023-08-20T08:00:50;3.85;;;1.33;;
19280;SDS011;9774;52.034;5.342;2023-08-20T08:03:17;2.47;;;0.80;;
19280;SDS011;9774;52.034;5.342;2023-08-20T08:05:47;3.90;;;1.17;;
19280;SDS011;9774;52.034;5.342;2023-08-20T08:08:15;4.80;;;1.70;;
19280;SDS011;9774;52.034;5.342;2023-08-20T08:10:43;3.28;;;1.17;;
19280;SDS011;9774;52.034;5.342;2023-08-20T08:13:13;2.47;;;1.25;;
19280;SDS011;9774;52.034;5.342;2023-08-20T08:15:42;3.63;;;1.10;;
19280;SDS011;9774;52.034;5.342;2023-08-20T08:18:09;2.63;;;0.90;;
19280;SDS011;9774;52.034;5.342;2023-08-20T08:20:42;4.60;;;1.20;;
19280;SDS011;9774;52.034;5.342;2023-08-20T08:23:10;4.05;;;1.33;;
19280;SDS011;9774;52.034;5.342;2023-08-20T08:25:37;5.07;;;1.20;;
19280;SDS011;9774;52.034;5.342;2023-08-20T08:28:04;4.55;;;1.27;;
19280;SDS011;9774;52.034;5.342;2023-08-20T08:30:32;4.03;;;1.05;;
19280;SDS011;9774;52.034;5.342;2023-08-20T08:33:01;3.45;;;1.02;;
19280;SDS011;9774;52.034;5.342;2023-08-20T08:35:29;3.10;;;0.80;;
19280;SDS011;9774;52.034;5.342;2023-08-20T08:38:04;2.72;;;1.40;;
19280;SDS011;9774;52.034;5.342;2023-08-20T08:40:38;2.97;;;1.15;;
19280;SDS011;9774;52.034;5.342;2023-08-20T08:43:08;1.58;;;0.75;;
19280;SDS011;9774;52.034;5.342;2023-08-20T08:45:41;3.47;;;0.75;;
19280;SDS011;9774;52.034;5.342;2023-08-20T08:48:13;2.00;;;0.88;;
19280;SDS011;9774;52.034;5.342;2023-08-20T08:50:42;2.80;;;0.80;;
19280;SDS011;9774;52.034;5.342;2023-08-20T08:53:09;8.13;;;1.10;;
19280;SDS011;9774;52.034;5.342;2023-08-20T08:55:38;2.83;;;0.88;;
19280;SDS011;9774;52.034;5.342;2023-08-20T08:58:05;2.83;;;0.82;;
19280;SDS011;9774;52.034;5.342;2023-08-20T09:00:32;4.40;;;0.82;;
19280;SDS011;9774;52.034;5.342;2023-08-20T09:02:59;3.08;;;1.25;;
19280;SDS011;9774;52.034;5.342;2023-08-20T09:05:26;3.58;;;1.58;;
19280;SDS011;9774;52.034;5.342;2023-08-20T09:07:55;3.05;;;1.13;;
19280;SDS011;9774;52.034;5.342;2023-08-20T09:10:25;4.05;;;0.90;;
19280;SDS011;9774;52.034;5.342;2023-08-20T09:12:56;5.03;;;1.35;;
19280;SDS011;9774;52.034;5.342;2023-08-20T09:15:29;3.95;;;1.48;;
19280;SDS011;9774;52.034;5.342;2023-08-20T09:18:00;2.53;;;0.90;;
19280;SDS011;9774;52.034;5.342;2023-08-20T09:20:35;2.22;;;0.85;;
19280;SDS011;9774;52.034;5.342;2023-08-20T09:23:03;3.95;;;1.27;;
19280;SDS011;9774;52.034;5.342;2023-08-20T09:25:30;4.32;;;1.00;;
19280;SDS011;9774;52.034;5.342;2023-08-20T09:28:01;1.27;;;0.63;;
19280;SDS011;9774;52.034;5.342;2023-08-20T09:30:29;2.92;;;0.80;;
19280;SDS011;9774;52.034;5.342;2023-08-20T09:33:03;4.78;;;0.70;;
19280;SDS011;9774;52.034;5.342;2023-08-20T09:35:34;2.13;;;0.65;;
19280;SDS011;9774;52.034;5.342;2023-08-20T09:38:01;2.40;;;0.73;;
19280;SDS011;9774;52.034;5.342;2023-08-20T09:40:30;1.58;;;0.65;;
19280;SDS011;9774;52.034;5.342;2023-08-20T09:42:57;2.47;;;0.80;;
19280;SDS011;9774;52.034;5.342;2023-08-20T09:45:25;3.35;;;1.05;;
19280;SDS011;9774;52.034;5.342;2023-08-20T09:47:55;2.15;;;0.68;;
19280;SDS011;9774;52.034;5.342;2023-08-20T09:50:25;2.47;;;0.90;;
19280;SDS011;9774;52.034;5.342;2023-08-20T09:53:03;2.58;;;0.90;;
19280;SDS011;9774;52.034;5.342;2023-08-20T09:55:38;2.58;;;0.60;;
19280;SDS011;9774;52.034;5.342;2023-08-20T09:58:08;2.40;;;0.90;;
19280;SDS011;9774;52.034;5.342;2023-08-20T10:00:38;2.50;;;0.60;;
19280;SDS011;9774;52.034;5.342;2023-08-20T10:03:05;1.27;;;0.63;;
19280;SDS011;9774;52.034;5.342;2023-08-20T10:05:32;2.70;;;0.68;;
19280;SDS011;9774;52.034;5.342;2023-08-20T10:08:00;1.95;;;0.60;;
19280;SDS011;9774;52.034;5.342;2023-08-20T10:10:27;2.25;;;0.50;;
19280;SDS011;9774;52.034;5.342;2023-08-20T10:12:55;2.28;;;0.60;;
19280;SDS011;9774;52.034;5.342;2023-08-20T10:15:23;1.48;;;0.60;;
19280;SDS011;9774;52.034;5.342;2023-08-20T10:17:53;1.38;;;0.50;;
19280;SDS011;9774;52.034;5.342;2023-08-20T10:20:23;4.60;;;1.08;;
19280;SDS011;9774;52.034;5.342;2023-08-20T10:22:57;2.28;;;0.52;;
19280;SDS011;9774;52.034;5.342;2023-08-20T10:25:29;6.20;;;0.65;;
19280;SDS011;9774;52.034;5.342;2023-08-20T10:28:11;2.05;;;0.77;;
19280;SDS011;9774;52.034;5.342;2023-08-20T10:33:35;0.80;;;0.50;;
19280;SDS011;9774;52.034;5.342;2023-08-20T10:36:08;2.60;;;0.70;;
19280;SDS011;9774;52.034;5.342;2023-08-20T10:38:39;1.08;;;0.35;;
19280;SDS011;9774;52.034;5.342;2023-08-20T10:41:06;2.63;;;0.80;;
19280;SDS011;9774;52.034;5.342;2023-08-20T10:43:35;2.13;;;0.73;;
19280;SDS011;9774;52.034;5.342;2023-08-20T10:46:06;0.82;;;0.40;;
19280;SDS011;9774;52.034;5.342;2023-08-20T10:48:47;0.75;;;0.40;;
19280;SDS011;9774;52.034;5.342;2023-08-20T10:51:17;1.15;;;0.40;;
19280;SDS011;9774;52.034;5.342;2023-08-20T10:54:02;2.47;;;0.93;;
19280;SDS011;9774;52.034;5.342;2023-08-20T10:56:38;2.63;;;0.60;;
19280;SDS011;9774;52.034;5.342;2023-08-20T10:59:08;1.13;;;0.45;;
19280;SDS011;9774;52.034;5.342;2023-08-20T11:01:38;1.35;;;0.40;;
19280;SDS011;9774;52.034;5.342;2023-08-20T11:04:10;5.30;;;1.00;;
19280;SDS011;9774;52.034;5.342;2023-08-20T11:06:38;1.85;;;0.60;;
19280;SDS011;9774;52.034;5.342;2023-08-20T11:09:06;1.85;;;0.57;;
19280;SDS011;9774;52.034;5.342;2023-08-20T11:11:33;3.40;;;0.82;;
19280;SDS011;9774;52.034;5.342;2023-08-20T11:14:04;1.30;;;0.50;;
19280;SDS011;9774;52.034;5.342;2023-08-20T11:16:33;1.88;;;0.45;;
19280;SDS011;9774;52.034;5.342;2023-08-20T11:19:01;0.95;;;0.35;;
19280;SDS011;9774;52.034;5.342;2023-08-20T11:21:35;1.38;;;0.60;;
19280;SDS011;9774;52.034;5.342;2023-08-20T11:24:03;2.05;;;0.50;;
19280;SDS011;9774;52.034;5.342;2023-08-20T11:26:31;1.45;;;0.60;;
19280;SDS011;9774;52.034;5.342;2023-08-20T11:28:59;0.77;;;0.40;;
19280;SDS011;9774;52.034;5.342;2023-08-20T11:31:27;3.25;;;0.50;;
19280;SDS011;9774;52.034;5.342;2023-08-20T11:33:56;2.30;;;0.60;;
19280;SDS011;9774;52.034;5.342;2023-08-20T11:36:23;1.60;;;0.60;;
19280;SDS011;9774;52.034;5.342;2023-08-20T11:38:52;0.68;;;0.40;;
19280;SDS011;9774;52.034;5.342;2023-08-20T11:41:20;2.00;;;0.55;;
19280;SDS011;9774;52.034;5.342;2023-08-20T11:43:48;2.67;;;0.70;;
19280;SDS011;9774;52.034;5.342;2023-08-20T11:46:18;4.35;;;0.80;;
19280;SDS011;9774;52.034;5.342;2023-08-20T11:48:59;2.00;;;0.70;;
19280;SDS011;9774;52.034;5.342;2023-08-20T11:51:29;2.15;;;0.60;;
19280;SDS011;9774;52.034;5.342;2023-08-20T11:54:03;0.65;;;0.30;;
19280;SDS011;9774;52.034;5.342;2023-08-20T11:56:32;2.90;;;0.57;;
19280;SDS011;9774;52.034;5.342;2023-08-20T11:58:59;1.00;;;0.50;;
19280;SDS011;9774;52.034;5.342;2023-08-20T12:01:29;0.80;;;0.50;;
19280;SDS011;9774;52.034;5.342;2023-08-20T12:03:59;1.85;;;0.40;;
19280;SDS011;9774;52.034;5.342;2023-08-20T12:06:28;1.13;;;0.50;;
19280;SDS011;9774;52.034;5.342;2023-08-20T12:08:56;1.75;;;0.50;;
19280;SDS011;9774;52.034;5.342;2023-08-20T12:11:25;1.60;;;0.40;;
19280;SDS011;9774;52.034;5.342;2023-08-20T12:13:52;0.50;;;0.43;;
19280;SDS011;9774;52.034;5.342;2023-08-20T12:16:21;0.40;;;0.30;;
19280;SDS011;9774;52.034;5.342;2023-08-20T12:18:50;1.55;;;0.40;;
19280;SDS011;9774;52.034;5.342;2023-08-20T12:21:18;0.90;;;0.50;;
19280;SDS011;9774;52.034;5.342;2023-08-20T12:23:45;0.80;;;0.35;;
19280;SDS011;9774;52.034;5.342;2023-08-20T12:26:12;1.38;;;0.43;;
19280;SDS011;9774;52.034;5.342;2023-08-20T12:28:40;1.15;;;0.28;;
19280;SDS011;9774;52.034;5.342;2023-08-20T12:31:07;2.00;;;0.60;;
19280;SDS011;9774;52.034;5.342;2023-08-20T12:33:34;1.77;;;0.47;;
19280;SDS011;9774;52.034;5.342;2023-08-20T12:36:01;2.22;;;0.50;;
19280;SDS011;9774;52.034;5.342;2023-08-20T12:38:29;1.85;;;0.65;;
19280;SDS011;9774;52.034;5.342;2023-08-20T12:40:58;2.88;;;0.52;;
19280;SDS011;9774;52.034;5.342;2023-08-20T12:43:26;1.70;;;0.50;;
19280;SDS011;9774;52.034;5.342;2023-08-20T12:45:54;9.30;;;1.20;;
19280;SDS011;9774;52.034;5.342;2023-08-20T12:48:21;0.52;;;0.30;;
19280;SDS011;9774;52.034;5.342;2023-08-20T12:50:48;1.83;;;0.55;;
19280;SDS011;9774;52.034;5.342;2023-08-20T12:53:16;1.13;;;0.68;;
19280;SDS011;9774;52.034;5.342;2023-08-20T12:55:43;1.80;;;0.75;;
19280;SDS011;9774;52.034;5.342;2023-08-20T12:58:09;1.77;;;0.75;;
19280;SDS011;9774;52.034;5.342;2023-08-20T13:00:37;2.25;;;0.60;;
19280;SDS011;9774;52.034;5.342;2023-08-20T13:03:06;1.35;;;0.63;;
19280;SDS011;9774;52.034;5.342;2023-08-20T13:05:34;0.90;;;0.50;;
19280;SDS011;9774;52.034;5.342;2023-08-20T13:08:02;2.38;;;0.80;;
19280;SDS011;9774;52.034;5.342;2023-08-20T13:10:30;1.95;;;0.70;;
19280;SDS011;9774;52.034;5.342;2023-08-20T13:12:59;2.35;;;0.80;;
19280;SDS011;9774;52.034;5.342;2023-08-20T13:15:28;1.08;;;0.55;;
19280;SDS011;9774;52.034;5.342;2023-08-20T13:17:56;1.60;;;0.63;;
19280;SDS011;9774;52.034;5.342;2023-08-20T13:20:25;2.58;;;0.70;;
19280;SDS011;9774;52.034;5.342;2023-08-20T13:22:52;1.30;;;0.60;;
19280;SDS011;9774;52.034;5.342;2023-08-20T13:25:19;3.75;;;0.63;;
19280;SDS011;9774;52.034;5.342;2023-08-20T13:27:47;5.22;;;0.90;;
19280;SDS011;9774;52.034;5.342;2023-08-20T13:30:15;1.65;;;0.68;;
19280;SDS011;9774;52.034;5.342;2023-08-20T13:32:42;1.30;;;0.65;;
19280;SDS011;9774;52.034;5.342;2023-08-20T13:35:09;1.20;;;0.57;;
19280;SDS011;9774;52.034;5.342;2023-08-20T13:37:38;2.53;;;0.77;;
19280;SDS011;9774;52.034;5.342;2023-08-20T13:40:05;3.95;;;0.77;;
19280;SDS011;9774;52.034;5.342;2023-08-20T13:42:35;0.98;;;0.52;;
19280;SDS011;9774;52.034;5.342;2023-08-20T13:45:02;2.33;;;0.80;;
19280;SDS011;9774;52.034;5.342;2023-08-20T13:47:30;1.25;;;0.45;;
19280;SDS011;9774;52.034;5.342;2023-08-20T13:49:57;1.25;;;0.52;;
19280;SDS011;9774;52.034;5.342;2023-08-20T13:52:24;2.75;;;0.63;;
19280;SDS011;9774;52.034;5.342;2023-08-20T13:54:52;1.17;;;0.50;;
19280;SDS011;9774;52.034;5.342;2023-08-20T13:57:19;1.63;;;0.70;;
19280;SDS011;9774;52.034;5.342;2023-08-20T13:59:46;1.40;;;0.80;;
19280;SDS011;9774;52.034;5.342;2023-08-20T14:02:15;2.28;;;0.85;;
19280;SDS011;9774;52.034;5.342;2023-08-20T14:04:42;1.55;;;0.70;;
19280;SDS011;9774;52.034;5.342;2023-08-20T14:07:09;4.95;;;0.70;;
19280;SDS011;9774;52.034;5.342;2023-08-20T14:09:36;2.80;;;0.80;;
19280;SDS011;9774;52.034;5.342;2023-08-20T14:12:06;2.65;;;0.95;;
19280;SDS011;9774;52.034;5.342;2023-08-20T14:14:34;5.60;;;1.40;;
19280;SDS011;9774;52.034;5.342;2023-08-20T14:17:01;2.03;;;0.80;;
19280;SDS011;9774;52.034;5.342;2023-08-20T14:19:28;3.60;;;0.73;;
19280;SDS011;9774;52.034;5.342;2023-08-20T14:21:55;1.70;;;0.82;;
19280;SDS011;9774;52.034;5.342;2023-08-20T14:24:22;2.08;;;0.80;;
19280;SDS011;9774;52.034;5.342;2023-08-20T14:26:49;6.78;;;1.00;;
19280;SDS011;9774;52.034;5.342;2023-08-20T14:29:17;3.78;;;0.93;;
19280;SDS011;9774;52.034;5.342;2023-08-20T14:31:44;1.08;;;0.60;;
19280;SDS011;9774;52.034;5.342;2023-08-20T14:34:11;1.73;;;0.57;;
19280;SDS011;9774;52.034;5.342;2023-08-20T14:36:38;1.98;;;0.70;;
19280;SDS011;9774;52.034;5.342;2023-08-20T14:39:05;3.55;;;0.77;;
19280;SDS011;9774;52.034;5.342;2023-08-20T14:41:32;4.03;;;0.88;;
19280;SDS011;9774;52.034;5.342;2023-08-20T14:43:59;2.03;;;0.60;;
19280;SDS011;9774;52.034;5.342;2023-08-20T14:46:28;3.20;;;0.77;;
19280;SDS011;9774;52.034;5.342;2023-08-20T14:48:55;1.30;;;0.55;;
19280;SDS011;9774;52.034;5.342;2023-08-20T14:51:22;0.95;;;0.50;;
19280;SDS011;9774;52.034;5.342;2023-08-20T14:53:49;1.35;;;0.73;;
19280;SDS011;9774;52.034;5.342;2023-08-20T14:56:16;1.60;;;0.35;;
19280;SDS011;9774;52.034;5.342;2023-08-20T14:58:43;1.75;;;0.80;;
19280;SDS011;9774;52.034;5.342;2023-08-20T15:01:10;1.90;;;0.70;;
19280;SDS011;9774;52.034;5.342;2023-08-20T15:03:38;1.83;;;0.80;;
19280;SDS011;9774;52.034;5.342;2023-08-20T15:06:06;2.40;;;0.47;;
19280;SDS011;9774;52.034;5.342;2023-08-20T15:08:33;1.60;;;0.80;;
19280;SDS011;9774;52.034;5.342;2023-08-20T15:11:00;0.90;;;0.50;;